sensor_id;sensor_type;location;lat;lon;timestamp;pressure;altitude;pressure_sealevel;temperature;humidity
75146;BME280;63641;46.526;24.612;2024-02-14T00:02:24;97102.97;;;5.23;76.89
75146;BME280;63641;46.526;24.612;2024-02-14T00:04:54;97094.84;;;5.18;76.89
75146;BME280;63641;46.526;24.612;2024-02-14T00:07:21;97110.75;;;5.24;77.04
75146;BME280;63641;46.526;24.612;2024-02-14T00:09:48;97107.19;;;5.19;77.20
75146;BME280;63641;46.526;24.612;2024-02-14T00:12:15;97095.81;;;5.06;77.21
75146;BME280;63641;46.526;24.612;2024-02-14T00:14:41;97115.69;;;5.11;77.52
75146;BME280;63641;46.526;24.612;2024-02-14T00:17:09;97108.97;;;5.08;77.45
75146;BME280;63641;46.526;24.612;2024-02-14T00:19:37;97121.25;;;5.04;77.58
75146;BME280;63641;46.526;24.612;2024-02-14T00:22:04;97121.50;;;5.02;77.45
75146;BME280;63641;46.526;24.612;2024-02-14T00:24:30;97111.97;;;4.90;77.59
75146;BME280;63641;46.526;24.612;2024-02-14T00:26:58;97126.22;;;4.90;77.68
75146;BME280;63641;46.526;24.612;2024-02-14T00:29:27;97122.31;;;4.81;77.89
75146;BME280;63641;46.526;24.612;2024-02-14T00:31:54;97125.25;;;4.79;78.01
75146;BME280;63641;46.526;24.612;2024-02-14T00:34:21;97134.66;;;4.82;78.16
75146;BME280;63641;46.526;24.612;2024-02-14T00:36:48;97123.63;;;4.78;78.08
75146;BME280;63641;46.526;24.612;2024-02-14T00:39:15;97117.63;;;4.71;77.90
75146;BME280;63641;46.526;24.612;2024-02-14T00:41:41;97145.19;;;4.89;78.09
75146;BME280;63641;46.526;24.612;2024-02-14T00:44:08;97134.66;;;4.82;78.16
75146;BME280;63641;46.526;24.612;2024-02-14T00:46:35;97132.50;;;4.79;77.85
75146;BME280;63641;46.526;24.612;2024-02-14T00:49:02;97149.50;;;4.90;77.91
75146;BME280;63641;46.526;24.612;2024-02-14T00:51:29;97145.19;;;4.89;77.65
75146;BME280;63641;46.526;24.612;2024-02-14T00:53:56;97152.19;;;4.90;78.04
75146;BME280;63641;46.526;24.612;2024-02-14T00:56:22;97143.78;;;4.81;78.01
75146;BME280;63641;46.526;24.612;2024-02-14T00:58:50;97158.13;;;4.92;77.91
75146;BME280;63641;46.526;24.612;2024-02-14T01:01:17;97152.75;;;4.92;77.88
75146;BME280;63641;46.526;24.612;2024-02-14T01:03:44;97154.31;;;4.88;77.70
75146;BME280;63641;46.526;24.612;2024-02-14T01:06:10;97146.75;;;4.84;77.85
75146;BME280;63641;46.526;24.612;2024-02-14T01:08:37;97155.44;;;4.92;77.69
75146;BME280;63641;46.526;24.612;2024-02-14T01:11:04;97143.66;;;4.93;77.58
75146;BME280;63641;46.526;24.612;2024-02-14T01:13:31;97157.13;;;4.98;77.56
75146;BME280;63641;46.526;24.612;2024-02-14T01:15:58;97159.31;;;5.01;77.37
75146;BME280;63641;46.526;24.612;2024-02-14T01:18:24;97156.88;;;4.99;77.42
75146;BME280;63641;46.526;24.612;2024-02-14T01:20:52;97156.56;;;4.96;77.42
75146;BME280;63641;46.526;24.612;2024-02-14T01:23:20;97146.75;;;4.84;77.60
75146;BME280;63641;46.526;24.612;2024-02-14T01:25:47;97140.84;;;4.82;77.52
75146;BME280;63641;46.526;24.612;2024-02-14T01:28:13;97155.63;;;4.85;77.78
75146;BME280;63641;46.526;24.612;2024-02-14T01:30:40;97147.44;;;4.75;78.07
75146;BME280;63641;46.526;24.612;2024-02-14T01:33:07;97149.63;;;4.78;77.84
75146;BME280;63641;46.526;24.612;2024-02-14T01:35:34;97164.47;;;4.85;77.77
75146;BME280;63641;46.526;24.612;2024-02-14T01:38:01;97164.16;;;4.82;77.91
75146;BME280;63641;46.526;24.612;2024-02-14T01:40:29;97164.72;;;4.84;77.85
75146;BME280;63641;46.526;24.612;2024-02-14T01:42:56;97159.78;;;4.76;77.78
75146;BME280;63641;46.526;24.612;2024-02-14T01:45:23;97166.03;;;4.81;77.70
75146;BME280;63641;46.526;24.612;2024-02-14T01:47:50;97159.78;;;4.76;77.83
75146;BME280;63641;46.526;24.612;2024-02-14T01:50:17;97174.31;;;4.80;77.85
75146;BME280;63641;46.526;24.612;2024-02-14T01:52:45;97178.88;;;4.79;77.93
75146;BME280;63641;46.526;24.612;2024-02-14T01:55:12;97170.84;;;4.79;78.14
75146;BME280;63641;46.526;24.612;2024-02-14T01:57:39;97174.31;;;4.80;78.12
75146;BME280;63641;46.526;24.612;2024-02-14T02:00:07;97170.25;;;4.77;78.26
75146;BME280;63641;46.526;24.612;2024-02-14T02:02:42;97172.06;;;4.72;78.02
75146;BME280;63641;46.526;24.612;2024-02-14T02:05:09;97149.38;;;4.57;78.35
75146;BME280;63641;46.526;24.612;2024-02-14T02:07:36;97174.44;;;4.68;78.39
75146;BME280;63641;46.526;24.612;2024-02-14T02:10:06;97175.31;;;4.74;78.00
75146;BME280;63641;46.526;24.612;2024-02-14T02:12:33;97179.06;;;4.73;78.03
75146;BME280;63641;46.526;24.612;2024-02-14T02:15:00;97180.13;;;4.72;77.88
75146;BME280;63641;46.526;24.612;2024-02-14T02:17:27;97183.91;;;4.76;77.88
75146;BME280;63641;46.526;24.612;2024-02-14T02:19:54;97188.97;;;4.72;77.85
75146;BME280;63641;46.526;24.612;2024-02-14T02:22:21;97190.41;;;4.80;77.73
75146;BME280;63641;46.526;24.612;2024-02-14T02:24:48;97189.50;;;4.74;77.89
75146;BME280;63641;46.526;24.612;2024-02-14T02:27:14;97187.84;;;4.68;77.96
75146;BME280;63641;46.526;24.612;2024-02-14T02:29:42;97180.03;;;4.67;77.57
75146;BME280;63641;46.526;24.612;2024-02-14T02:32:09;97196.75;;;4.74;77.78
75146;BME280;63641;46.526;24.612;2024-02-14T02:34:36;97199.38;;;4.69;77.47
75146;BME280;63641;46.526;24.612;2024-02-14T02:37:05;97197.91;;;4.61;77.84
75146;BME280;63641;46.526;24.612;2024-02-14T02:39:36;97208.97;;;4.65;77.80
75146;BME280;63641;46.526;24.612;2024-02-14T02:42:03;97202.69;;;4.59;77.68
75146;BME280;63641;46.526;24.612;2024-02-14T02:44:31;97200.19;;;4.52;77.72
75146;BME280;63641;46.526;24.612;2024-02-14T02:46:58;97191.00;;;4.48;77.83
75146;BME280;63641;46.526;24.612;2024-02-14T02:49:27;97204.50;;;4.53;77.52
75146;BME280;63641;46.526;24.612;2024-02-14T02:51:55;97219.91;;;4.63;77.56
75146;BME280;63641;46.526;24.612;2024-02-14T02:54:22;97200.69;;;4.49;77.62
75146;BME280;63641;46.526;24.612;2024-02-14T02:56:50;97211.47;;;4.54;77.49
75146;BME280;63641;46.526;24.612;2024-02-14T02:59:16;97226.00;;;4.58;77.61
75146;BME280;63641;46.526;24.612;2024-02-14T03:01:43;97224.88;;;4.54;77.74
75146;BME280;63641;46.526;24.612;2024-02-14T03:04:11;97233.56;;;4.62;77.58
75146;BME280;63641;46.526;24.612;2024-02-14T03:06:40;97237.06;;;4.62;77.54
75146;BME280;63641;46.526;24.612;2024-02-14T03:09:07;97221.06;;;4.50;77.52
75146;BME280;63641;46.526;24.612;2024-02-14T03:11:34;97235.75;;;4.65;77.61
75146;BME280;63641;46.526;24.612;2024-02-14T03:14:02;97248.09;;;4.66;77.62
75146;BME280;63641;46.526;24.612;2024-02-14T03:16:29;97251.50;;;4.61;77.90
75146;BME280;63641;46.526;24.612;2024-02-14T03:18:56;97257.69;;;4.62;77.77
75146;BME280;63641;46.526;24.612;2024-02-14T03:21:23;97262.56;;;4.65;77.83
75146;BME280;63641;46.526;24.612;2024-02-14T03:23:50;97255.81;;;4.62;77.90
75146;BME280;63641;46.526;24.612;2024-02-14T03:26:17;97268.72;;;4.65;77.71
75146;BME280;63641;46.526;24.612;2024-02-14T03:28:44;97256.38;;;4.64;77.81
75146;BME280;63641;46.526;24.612;2024-02-14T03:31:11;97265.78;;;4.67;77.76
75146;BME280;63641;46.526;24.612;2024-02-14T03:33:42;97255.00;;;4.62;77.63
75146;BME280;63641;46.526;24.612;2024-02-14T03:36:09;97260.25;;;4.56;77.70
75146;BME280;63641;46.526;24.612;2024-02-14T03:38:37;97269.47;;;4.60;77.75
75146;BME280;63641;46.526;24.612;2024-02-14T03:41:06;97268.56;;;4.55;78.03
75146;BME280;63641;46.526;24.612;2024-02-14T03:43:33;97265.56;;;4.51;78.28
75146;BME280;63641;46.526;24.612;2024-02-14T03:46:00;97269.63;;;4.54;77.86
75146;BME280;63641;46.526;24.612;2024-02-14T03:48:27;97272.03;;;4.55;77.90
75146;BME280;63641;46.526;24.612;2024-02-14T03:50:54;97284.69;;;4.60;77.71
75146;BME280;63641;46.526;24.612;2024-02-14T03:53:21;97267.41;;;4.51;77.72
75146;BME280;63641;46.526;24.612;2024-02-14T03:55:48;97295.69;;;4.58;77.77
75146;BME280;63641;46.526;24.612;2024-02-14T03:58:15;97286.75;;;4.53;77.53
75146;BME280;63641;46.526;24.612;2024-02-14T04:00:52;97275.63;;;4.44;77.76
75146;BME280;63641;46.526;24.612;2024-02-14T04:03:19;97294.81;;;4.53;77.71
75146;BME280;63641;46.526;24.612;2024-02-14T04:05:46;97281.78;;;4.45;77.74
75146;BME280;63641;46.526;24.612;2024-02-14T04:08:14;97278.56;;;4.43;77.66
75146;BME280;63641;46.526;24.612;2024-02-14T04:10:41;97280.41;;;4.42;77.66
75146;BME280;63641;46.526;24.612;2024-02-14T04:13:09;97294.16;;;4.46;77.56
75146;BME280;63641;46.526;24.612;2024-02-14T04:15:36;97298.66;;;4.45;77.53
75146;BME280;63641;46.526;24.612;2024-02-14T04:18:03;97307.53;;;4.46;77.69
75146;BME280;63641;46.526;24.612;2024-02-14T04:20:33;97300.69;;;4.38;77.75
75146;BME280;63641;46.526;24.612;2024-02-14T04:23:00;97287.03;;;4.23;77.63
75146;BME280;63641;46.526;24.612;2024-02-14T04:25:27;97299.72;;;4.27;77.73
75146;BME280;63641;46.526;24.612;2024-02-14T04:27:54;97305.09;;;4.27;77.75
75146;BME280;63641;46.526;24.612;2024-02-14T04:30:21;97298.47;;;4.18;77.74
75146;BME280;63641;46.526;24.612;2024-02-14T04:32:48;97322.50;;;4.30;77.68
75146;BME280;63641;46.526;24.612;2024-02-14T04:35:15;97308.72;;;4.21;77.60
75146;BME280;63641;46.526;24.612;2024-02-14T04:37:42;97323.00;;;4.27;77.81
75146;BME280;63641;46.526;24.612;2024-02-14T04:40:12;97324.72;;;4.33;77.55
75146;BME280;63641;46.526;24.612;2024-02-14T04:42:40;97324.72;;;4.33;77.55
75146;BME280;63641;46.526;24.612;2024-02-14T04:45:07;97332.19;;;4.31;77.62
75146;BME280;63641;46.526;24.612;2024-02-14T04:47:36;97331.63;;;4.29;77.53
75146;BME280;63641;46.526;24.612;2024-02-14T04:50:03;97309.19;;;4.18;77.47
75146;BME280;63641;46.526;24.612;2024-02-14T04:52:31;97315.94;;;4.21;77.36
75146;BME280;63641;46.526;24.612;2024-02-14T04:54:58;97333.00;;;4.31;77.38
75146;BME280;63641;46.526;24.612;2024-02-14T04:57:24;97324.19;;;4.19;77.38
75146;BME280;63641;46.526;24.612;2024-02-14T04:59:52;97340.13;;;4.26;77.17
75146;BME280;63641;46.526;24.612;2024-02-14T05:02:18;97324.53;;;4.23;77.32
75146;BME280;63641;46.526;24.612;2024-02-14T05:04:45;97337.06;;;4.34;77.06
75146;BME280;63641;46.526;24.612;2024-02-14T05:07:12;97341.94;;;4.37;77.00
75146;BME280;63641;46.526;24.612;2024-02-14T05:09:39;97344.53;;;4.32;76.84
75146;BME280;63641;46.526;24.612;2024-02-14T05:12:06;97351.09;;;4.41;76.79
75146;BME280;63641;46.526;24.612;2024-02-14T05:14:38;97348.69;;;4.40;76.75
75146;BME280;63641;46.526;24.612;2024-02-14T05:17:05;97341.13;;;4.36;76.58
75146;BME280;63641;46.526;24.612;2024-02-14T05:19:32;97354.44;;;4.48;76.71
75146;BME280;63641;46.526;24.612;2024-02-14T05:21:59;97354.13;;;4.45;76.46
75146;BME280;63641;46.526;24.612;2024-02-14T05:24:26;97358.94;;;4.43;76.43
75146;BME280;63641;46.526;24.612;2024-02-14T05:26:57;97360.78;;;4.42;76.83
75146;BME280;63641;46.526;24.612;2024-02-14T05:29:23;97363.47;;;4.42;76.67
75146;BME280;63641;46.526;24.612;2024-02-14T05:31:50;97378.09;;;4.51;76.65
75146;BME280;63641;46.526;24.612;2024-02-14T05:34:19;97372.72;;;4.51;76.54
75146;BME280;63641;46.526;24.612;2024-02-14T05:36:46;97371.59;;;4.47;76.63
75146;BME280;63641;46.526;24.612;2024-02-14T05:39:13;97375.66;;;4.50;76.46
75146;BME280;63641;46.526;24.612;2024-02-14T05:41:43;97389.13;;;4.55;76.38
75146;BME280;63641;46.526;24.612;2024-02-14T05:44:10;97385.78;;;4.48;76.32
75146;BME280;63641;46.526;24.612;2024-02-14T05:46:36;97403.13;;;4.57;76.38
75146;BME280;63641;46.526;24.612;2024-02-14T05:49:03;97391.81;;;4.55;76.18
75146;BME280;63641;46.526;24.612;2024-02-14T05:51:30;97405.22;;;4.55;76.15
75146;BME280;63641;46.526;24.612;2024-02-14T05:53:58;97404.66;;;4.53;76.25
75146;BME280;63641;46.526;24.612;2024-02-14T05:56:25;97407.47;;;4.46;76.25
75146;BME280;63641;46.526;24.612;2024-02-14T05:58:52;97413.88;;;4.45;76.15
75146;BME280;63641;46.526;24.612;2024-02-14T06:01:19;97399.72;;;4.33;76.28
75146;BME280;63641;46.526;24.612;2024-02-14T06:03:46;97402.19;;;4.34;76.49
75146;BME280;63641;46.526;24.612;2024-02-14T06:06:13;97416.00;;;4.43;76.06
75146;BME280;63641;46.526;24.612;2024-02-14T06:08:40;97417.13;;;4.47;75.99
75146;BME280;63641;46.526;24.612;2024-02-14T06:11:07;97406.34;;;4.42;75.96
75146;BME280;63641;46.526;24.612;2024-02-14T06:13:34;97408.50;;;4.45;75.96
75146;BME280;63641;46.526;24.612;2024-02-14T06:16:02;97423.78;;;4.45;75.79
75146;BME280;63641;46.526;24.612;2024-02-14T06:18:29;97428.00;;;4.41;75.90
75146;BME280;63641;46.526;24.612;2024-02-14T06:20:56;97411.97;;;4.29;75.94
75146;BME280;63641;46.526;24.612;2024-02-14T06:23:23;97430.25;;;4.32;75.90
75146;BME280;63641;46.526;24.612;2024-02-14T06:25:50;97433.00;;;4.37;75.96
75146;BME280;63641;46.526;24.612;2024-02-14T06:28:17;97421.63;;;4.30;76.15
75146;BME280;63641;46.526;24.612;2024-02-14T06:30:43;97430.59;;;4.35;75.96
75146;BME280;63641;46.526;24.612;2024-02-14T06:33:10;97425.03;;;4.25;76.00
75146;BME280;63641;46.526;24.612;2024-02-14T06:35:37;97432.69;;;4.33;76.10
75146;BME280;63641;46.526;24.612;2024-02-14T06:38:05;97445.47;;;4.43;76.03
75146;BME280;63641;46.526;24.612;2024-02-14T06:40:33;97441.16;;;4.42;75.79
75146;BME280;63641;46.526;24.612;2024-02-14T06:43:00;97450.91;;;4.48;75.87
75146;BME280;63641;46.526;24.612;2024-02-14T06:45:27;97448.56;;;4.52;75.76
75146;BME280;63641;46.526;24.612;2024-02-14T06:47:55;97454.72;;;4.52;75.95
75146;BME280;63641;46.526;24.612;2024-02-14T06:50:22;97437.44;;;4.43;75.58
75146;BME280;63641;46.526;24.612;2024-02-14T06:52:51;97448.22;;;4.48;75.43
75146;BME280;63641;46.526;24.612;2024-02-14T06:55:18;97457.75;;;4.56;75.44
75146;BME280;63641;46.526;24.612;2024-02-14T06:57:45;97461.81;;;4.58;75.34
75146;BME280;63641;46.526;24.612;2024-02-14T07:00:13;97454.84;;;4.57;75.61
75146;BME280;63641;46.526;24.612;2024-02-14T07:02:40;97461.25;;;4.56;74.96
75146;BME280;63641;46.526;24.612;2024-02-14T07:05:07;97453.72;;;4.53;75.17
75146;BME280;63641;46.526;24.612;2024-02-14T07:07:35;97460.44;;;4.56;74.87
75146;BME280;63641;46.526;24.612;2024-02-14T07:10:03;97470.94;;;4.57;74.72
75146;BME280;63641;46.526;24.612;2024-02-14T07:12:33;97461.97;;;4.52;75.07
75146;BME280;63641;46.526;24.612;2024-02-14T07:14:59;97451.88;;;4.42;74.83
75146;BME280;63641;46.526;24.612;2024-02-14T07:17:26;97471.31;;;4.49;74.96
75146;BME280;63641;46.526;24.612;2024-02-14T07:19:53;97460.47;;;4.44;74.99
75146;BME280;63641;46.526;24.612;2024-02-14T07:22:20;97464.91;;;4.50;74.90
75146;BME280;63641;46.526;24.612;2024-02-14T07:24:47;97474.97;;;4.60;74.47
75146;BME280;63641;46.526;24.612;2024-02-14T07:27:15;97460.34;;;4.51;74.28
75146;BME280;63641;46.526;24.612;2024-02-14T07:29:43;97472.56;;;4.58;74.24
75146;BME280;63641;46.526;24.612;2024-02-14T07:32:10;97470.19;;;4.62;74.19
75146;BME280;63641;46.526;24.612;2024-02-14T07:34:40;97469.47;;;4.67;74.05
75146;BME280;63641;46.526;24.612;2024-02-14T07:37:07;97472.16;;;4.67;74.06
75146;BME280;63641;46.526;24.612;2024-02-14T07:39:34;97495.34;;;4.73;73.93
75146;BME280;63641;46.526;24.612;2024-02-14T07:42:05;97481.59;;;4.69;73.83
75146;BME280;63641;46.526;24.612;2024-02-14T07:44:32;97482.06;;;4.66;73.95
75146;BME280;63641;46.526;24.612;2024-02-14T07:46:59;97497.53;;;4.76;73.79
75146;BME280;63641;46.526;24.612;2024-02-14T07:49:30;97499.75;;;4.79;73.47
75146;BME280;63641;46.526;24.612;2024-02-14T07:51:57;97501.44;;;4.85;73.59
75146;BME280;63641;46.526;24.612;2024-02-14T07:54:24;97475.44;;;4.69;73.34
75146;BME280;63641;46.526;24.612;2024-02-14T07:56:51;97502.66;;;4.77;73.40
75146;BME280;63641;46.526;24.612;2024-02-14T07:59:18;97501.44;;;4.85;73.50
75146;BME280;63641;46.526;24.612;2024-02-14T08:01:46;97494.59;;;4.77;73.27
75146;BME280;63641;46.526;24.612;2024-02-14T08:04:13;97506.34;;;4.88;73.24
75146;BME280;63641;46.526;24.612;2024-02-14T08:06:40;97501.69;;;4.83;72.95
75146;BME280;63641;46.526;24.612;2024-02-14T08:09:07;97504.00;;;4.92;72.88
75146;BME280;63641;46.526;24.612;2024-02-14T08:11:36;97512.22;;;5.02;72.82
75146;BME280;63641;46.526;24.612;2024-02-14T08:14:03;97517.81;;;5.00;72.52
75146;BME280;63641;46.526;24.612;2024-02-14T08:16:30;97508.75;;;5.01;72.72
75146;BME280;63641;46.526;24.612;2024-02-14T08:18:57;97511.31;;;4.96;72.45
75146;BME280;63641;46.526;24.612;2024-02-14T08:21:27;97508.06;;;4.94;72.18
75146;BME280;63641;46.526;24.612;2024-02-14T08:23:57;97521.81;;;4.98;72.38
75146;BME280;63641;46.526;24.612;2024-02-14T08:26:27;97525.84;;;5.00;72.34
75146;BME280;63641;46.526;24.612;2024-02-14T08:28:55;97531.19;;;5.12;72.19
75146;BME280;63641;46.526;24.612;2024-02-14T08:31:21;97509.47;;;5.14;71.97
75146;BME280;63641;46.526;24.612;2024-02-14T08:33:49;97507.72;;;5.19;71.65
75146;BME280;63641;46.526;24.612;2024-02-14T08:36:16;97521.13;;;5.36;71.55
75146;BME280;63641;46.526;24.612;2024-02-14T08:38:45;97504.41;;;5.46;71.51
75146;BME280;63641;46.526;24.612;2024-02-14T08:41:12;97529.44;;;5.68;71.34
75146;BME280;63641;46.526;24.612;2024-02-14T08:43:39;97516.56;;;5.70;70.83
75146;BME280;63641;46.526;24.612;2024-02-14T08:46:11;97518.59;;;5.80;70.89
75146;BME280;63641;46.526;24.612;2024-02-14T08:48:38;97520.22;;;5.81;70.62
75146;BME280;63641;46.526;24.612;2024-02-14T08:51:14;97512.59;;;5.90;70.75
75146;BME280;63641;46.526;24.612;2024-02-14T08:53:41;97498.59;;;6.04;70.56
75146;BME280;63641;46.526;24.612;2024-02-14T08:56:12;97506.91;;;6.25;70.14
75146;BME280;63641;46.526;24.612;2024-02-14T08:58:40;97500.69;;;6.41;70.06
75146;BME280;63641;46.526;24.612;2024-02-14T09:01:06;97510.59;;;6.63;69.79
75146;BME280;63641;46.526;24.612;2024-02-14T09:03:43;97519.41;;;6.80;69.74
75146;BME280;63641;46.526;24.612;2024-02-14T09:06:17;97514.50;;;6.99;69.20
75146;BME280;63641;46.526;24.612;2024-02-14T09:08:47;97504.31;;;7.01;69.05
75146;BME280;63641;46.526;24.612;2024-02-14T09:11:14;97516.09;;;7.22;68.52
75146;BME280;63641;46.526;24.612;2024-02-14T09:13:41;97517.75;;;7.28;68.50
75146;BME280;63641;46.526;24.612;2024-02-14T09:16:09;97512.94;;;7.30;68.00
75146;BME280;63641;46.526;24.612;2024-02-14T09:18:37;97522.91;;;7.35;68.21
75146;BME280;63641;46.526;24.612;2024-02-14T09:21:03;97514.34;;;7.38;67.86
75146;BME280;63641;46.526;24.612;2024-02-14T09:23:32;97515.41;;;7.37;67.56
75146;BME280;63641;46.526;24.612;2024-02-14T09:25:59;97524.31;;;7.37;67.40
75146;BME280;63641;46.526;24.612;2024-02-14T09:28:26;97522.91;;;7.35;67.50
75146;BME280;63641;46.526;24.612;2024-02-14T09:30:53;97520.19;;;7.30;67.45
75146;BME280;63641;46.526;24.612;2024-02-14T09:33:21;97525.97;;;7.16;67.46
75146;BME280;63641;46.526;24.612;2024-02-14T09:35:48;97526.13;;;7.05;67.40
75146;BME280;63641;46.526;24.612;2024-02-14T09:38:16;97535.00;;;7.05;67.40
75146;BME280;63641;46.526;24.612;2024-02-14T09:40:43;97525.03;;;7.00;67.21
75146;BME280;63641;46.526;24.612;2024-02-14T09:43:34;97532.16;;;7.17;66.97
75146;BME280;63641;46.526;24.612;2024-02-14T09:46:02;97518.50;;;7.23;66.70
75146;BME280;63641;46.526;24.612;2024-02-14T09:48:34;97536.19;;;7.41;66.26
75146;BME280;63641;46.526;24.612;2024-02-14T09:51:02;97540.47;;;7.42;66.06
75146;BME280;63641;46.526;24.612;2024-02-14T09:53:29;97545.88;;;7.42;65.69
75146;BME280;63641;46.526;24.612;2024-02-14T09:55:57;97531.88;;;7.40;66.02
75146;BME280;63641;46.526;24.612;2024-02-14T09:58:26;97535.41;;;7.46;65.82
75146;BME280;63641;46.526;24.612;2024-02-14T10:00:53;97538.09;;;7.46;65.99
75146;BME280;63641;46.526;24.612;2024-02-14T10:03:20;97535.59;;;7.39;65.93
75146;BME280;63641;46.526;24.612;2024-02-14T10:05:47;97509.63;;;7.23;66.04
75146;BME280;63641;46.526;24.612;2024-02-14T10:08:14;97532.31;;;7.32;66.22
75146;BME280;63641;46.526;24.612;2024-02-14T10:10:41;97536.38;;;7.35;65.94
75146;BME280;63641;46.526;24.612;2024-02-14T10:13:08;97539.38;;;7.38;66.12
75146;BME280;63641;46.526;24.612;2024-02-14T10:15:35;97519.94;;;7.31;66.17
75146;BME280;63641;46.526;24.612;2024-02-14T10:18:02;97541.25;;;7.38;66.09
75146;BME280;63641;46.526;24.612;2024-02-14T10:20:30;97541.66;;;7.24;65.86
75146;BME280;63641;46.526;24.612;2024-02-14T10:23:03;97528.06;;;7.09;65.61
75146;BME280;63641;46.526;24.612;2024-02-14T10:25:30;97532.06;;;7.07;65.75
75146;BME280;63641;46.526;24.612;2024-02-14T10:28:04;97531.56;;;7.10;65.57
75146;BME280;63641;46.526;24.612;2024-02-14T10:30:38;97534.19;;;7.05;65.50
75146;BME280;63641;46.526;24.612;2024-02-14T10:33:07;97534.75;;;7.07;65.14
75146;BME280;63641;46.526;24.612;2024-02-14T10:35:50;97526.38;;;7.03;65.10
75146;BME280;63641;46.526;24.612;2024-02-14T10:38:20;97529.16;;;7.13;65.03
75146;BME280;63641;46.526;24.612;2024-02-14T10:40:49;97524.06;;;7.12;65.12
75146;BME280;63641;46.526;24.612;2024-02-14T10:43:18;97522.16;;;7.12;64.98
75146;BME280;63641;46.526;24.612;2024-02-14T10:45:44;97533.59;;;7.24;65.09
75146;BME280;63641;46.526;24.612;2024-02-14T10:48:12;97533.28;;;7.21;64.75
75146;BME280;63641;46.526;24.612;2024-02-14T10:50:43;97539.25;;;7.23;64.71
75146;BME280;63641;46.526;24.612;2024-02-14T10:53:13;97529.59;;;7.27;64.61
75146;BME280;63641;46.526;24.612;2024-02-14T10:55:45;97539.84;;;7.30;64.42
75146;BME280;63641;46.526;24.612;2024-02-14T10:58:12;97532.31;;;7.32;64.34
75146;BME280;63641;46.526;24.612;2024-02-14T11:00:40;97535.59;;;7.39;64.43
75146;BME280;63641;46.526;24.612;2024-02-14T11:03:08;97536.19;;;7.41;64.29
75146;BME280;63641;46.526;24.612;2024-02-14T11:05:47;97531.81;;;7.35;64.21
75146;BME280;63641;46.526;24.612;2024-02-14T11:08:18;97543.69;;;7.39;64.20
75146;BME280;63641;46.526;24.612;2024-02-14T11:10:53;97541.25;;;7.38;64.17
75146;BME280;63641;46.526;24.612;2024-02-14T11:13:20;97541.06;;;7.44;63.85
75146;BME280;63641;46.526;24.612;2024-02-14T11:15:51;97556.72;;;7.47;63.84
75146;BME280;63641;46.526;24.612;2024-02-14T11:18:28;97534.63;;;7.50;63.42
75146;BME280;63641;46.526;24.612;2024-02-14T11:21:03;97548.16;;;7.56;63.46
75146;BME280;63641;46.526;24.612;2024-02-14T11:23:31;97547.59;;;7.54;62.89
75146;BME280;63641;46.526;24.612;2024-02-14T11:26:03;97537.25;;;7.40;62.84
75146;BME280;63641;46.526;24.612;2024-02-14T11:28:30;97534.56;;;7.40;62.85
75146;BME280;63641;46.526;24.612;2024-02-14T11:31:01;97533.00;;;7.49;62.69
75146;BME280;63641;46.526;24.612;2024-02-14T11:33:30;97544.13;;;7.58;62.72
75146;BME280;63641;46.526;24.612;2024-02-14T11:35:57;97530.41;;;7.60;62.80
75146;BME280;63641;46.526;24.612;2024-02-14T11:38:25;97536.59;;;7.60;62.36
75146;BME280;63641;46.526;24.612;2024-02-14T11:40:56;97541.69;;;7.57;62.57
75146;BME280;63641;46.526;24.612;2024-02-14T11:43:24;97518.47;;;7.50;62.57
75146;BME280;63641;46.526;24.612;2024-02-14T11:45:51;97535.81;;;7.65;62.14
75146;BME280;63641;46.526;24.612;2024-02-14T11:48:21;97536.44;;;7.72;62.00
75146;BME280;63641;46.526;24.612;2024-02-14T11:50:53;97521.03;;;7.62;62.12
75146;BME280;63641;46.526;24.612;2024-02-14T11:53:20;97539.13;;;7.72;61.74
75146;BME280;63641;46.526;24.612;2024-02-14T11:55:47;97524.00;;;7.66;61.71
75146;BME280;63641;46.526;24.612;2024-02-14T11:58:17;97530.50;;;7.70;61.55
75146;BME280;63641;46.526;24.612;2024-02-14T12:00:47;97542.91;;;7.76;61.52
75146;BME280;63641;46.526;24.612;2024-02-14T12:03:18;97534.78;;;7.66;61.26
75146;BME280;63641;46.526;24.612;2024-02-14T12:05:47;97535.34;;;7.73;60.94
75146;BME280;63641;46.526;24.612;2024-02-14T12:08:16;97535.88;;;7.70;60.93
75146;BME280;63641;46.526;24.612;2024-02-14T12:10:45;97541.88;;;7.77;60.50
75146;BME280;63641;46.526;24.612;2024-02-14T12:13:20;97541.88;;;7.77;60.11
75146;BME280;63641;46.526;24.612;2024-02-14T12:15:49;97545.66;;;7.81;60.24
75146;BME280;63641;46.526;24.612;2024-02-14T12:18:17;97538.44;;;7.87;59.80
75146;BME280;63641;46.526;24.612;2024-02-14T12:20:48;97536.50;;;7.82;59.92
75146;BME280;63641;46.526;24.612;2024-02-14T12:23:22;97534.84;;;7.76;59.85
75146;BME280;63641;46.526;24.612;2024-02-14T12:25:50;97539.47;;;7.81;59.76
75146;BME280;63641;46.526;24.612;2024-02-14T12:28:18;97534.91;;;7.81;59.83
75146;BME280;63641;46.526;24.612;2024-02-14T12:30:51;97535.41;;;7.78;59.69
75146;BME280;63641;46.526;24.612;2024-02-14T12:33:25;97539.19;;;7.77;59.69
75146;BME280;63641;46.526;24.612;2024-02-14T12:35:54;97541.31;;;7.75;59.49
75146;BME280;63641;46.526;24.612;2024-02-14T12:38:21;97547.19;;;7.72;59.58
75146;BME280;63641;46.526;24.612;2024-02-14T12:40:50;97540.78;;;7.78;59.56
75146;BME280;63641;46.526;24.612;2024-02-14T12:43:20;97542.97;;;7.81;59.34
75146;BME280;63641;46.526;24.612;2024-02-14T12:45:47;97526.53;;;7.83;59.32
75146;BME280;63641;46.526;24.612;2024-02-14T12:48:22;97541.47;;;7.95;59.14
75146;BME280;63641;46.526;24.612;2024-02-14T12:50:50;97542.28;;;7.96;59.29
75146;BME280;63641;46.526;24.612;2024-02-14T12:53:19;97554.16;;;8.00;59.24
75146;BME280;63641;46.526;24.612;2024-02-14T12:55:46;97544.16;;;7.95;59.43
75146;BME280;63641;46.526;24.612;2024-02-14T12:58:13;97547.16;;;7.99;59.58
75146;BME280;63641;46.526;24.612;2024-02-14T13:00:41;97539.81;;;7.94;59.80
75146;BME280;63641;46.526;24.612;2024-02-14T13:03:10;97533.34;;;7.90;59.61
75146;BME280;63641;46.526;24.612;2024-02-14T13:05:37;97556.06;;;8.05;59.59